sensor_id;sensor_type;location;lat;lon;timestamp;P1;durP1;ratioP1;P2;durP2;ratioP2
19291;SDS011;9779;51.756;7.450;2023-07-29T00:01:40;4.07;;;1.33;;
19291;SDS011;9779;51.756;7.450;2023-07-29T00:04:16;3.23;;;1.30;;
19291;SDS011;9779;51.756;7.450;2023-07-29T00:06:44;1.30;;;1.00;;
19291;SDS011;9779;51.756;7.450;2023-07-29T00:09:10;0.90;;;0.90;;
19291;SDS011;9779;51.756;7.450;2023-07-29T00:11:35;2.60;;;1.10;;
19291;SDS011;9779;51.756;7.450;2023-07-29T00:14:01;1.07;;;1.00;;
19291;SDS011;9779;51.756;7.450;2023-07-29T00:16:27;3.70;;;1.37;;
19291;SDS011;9779;51.756;7.450;2023-07-29T00:18:53;5.77;;;1.07;;
19291;SDS011;9779;51.756;7.450;2023-07-29T00:21:20;2.83;;;1.40;;
19291;SDS011;9779;51.756;7.450;2023-07-29T00:23:46;2.17;;;1.57;;
19291;SDS011;9779;51.756;7.450;2023-07-29T00:26:12;1.20;;;1.07;;
19291;SDS011;9779;51.756;7.450;2023-07-29T00:28:37;1.50;;;1.40;;
19291;SDS011;9779;51.756;7.450;2023-07-29T00:31:03;1.53;;;1.23;;
19291;SDS011;9779;51.756;7.450;2023-07-29T00:33:32;4.87;;;1.50;;
19291;SDS011;9779;51.756;7.450;2023-07-29T00:35:57;1.83;;;1.13;;
19291;SDS011;9779;51.756;7.450;2023-07-29T00:38:26;10.47;;;1.90;;
19291;SDS011;9779;51.756;7.450;2023-07-29T00:40:52;1.80;;;1.40;;
19291;SDS011;9779;51.756;7.450;2023-07-29T00:43:25;1.60;;;1.20;;
19291;SDS011;9779;51.756;7.450;2023-07-29T00:45:50;2.70;;;1.20;;
19291;SDS011;9779;51.756;7.450;2023-07-29T00:48:17;2.30;;;1.30;;
19291;SDS011;9779;51.756;7.450;2023-07-29T00:50:45;1.60;;;1.50;;
19291;SDS011;9779;51.756;7.450;2023-07-29T00:53:11;3.70;;;1.57;;
19291;SDS011;9779;51.756;7.450;2023-07-29T00:55:37;3.63;;;1.40;;
19291;SDS011;9779;51.756;7.450;2023-07-29T00:58:02;3.03;;;1.43;;
19291;SDS011;9779;51.756;7.450;2023-07-29T01:00:29;8.60;;;1.80;;
19291;SDS011;9779;51.756;7.450;2023-07-29T01:02:58;5.77;;;1.30;;
19291;SDS011;9779;51.756;7.450;2023-07-29T01:05:23;1.47;;;1.40;;
19291;SDS011;9779;51.756;7.450;2023-07-29T01:08:13;1.63;;;1.40;;
19291;SDS011;9779;51.756;7.450;2023-07-29T01:11:01;1.90;;;1.80;;
19291;SDS011;9779;51.756;7.450;2023-07-29T01:16:47;1.40;;;1.30;;
19291;SDS011;9779;51.756;7.450;2023-07-29T01:19:40;5.10;;;1.50;;
19291;SDS011;9779;51.756;7.450;2023-07-29T01:22:33;3.50;;;1.30;;
19291;SDS011;9779;51.756;7.450;2023-07-29T01:28:26;2.23;;;1.70;;
19291;SDS011;9779;51.756;7.450;2023-07-29T01:30:57;3.13;;;1.40;;
19291;SDS011;9779;51.756;7.450;2023-07-29T01:33:30;1.40;;;1.30;;
19291;SDS011;9779;51.756;7.450;2023-07-29T01:36:33;3.73;;;1.77;;
19291;SDS011;9779;51.756;7.450;2023-07-29T01:38:56;1.70;;;1.60;;
19291;SDS011;9779;51.756;7.450;2023-07-29T01:41:23;3.17;;;1.60;;
19291;SDS011;9779;51.756;7.450;2023-07-29T01:43:49;1.10;;;1.10;;
19291;SDS011;9779;51.756;7.450;2023-07-29T01:46:16;2.00;;;1.90;;
19291;SDS011;9779;51.756;7.450;2023-07-29T01:48:42;1.50;;;1.43;;
19291;SDS011;9779;51.756;7.450;2023-07-29T01:51:11;1.47;;;1.20;;
19291;SDS011;9779;51.756;7.450;2023-07-29T01:53:37;2.03;;;1.67;;
19291;SDS011;9779;51.756;7.450;2023-07-29T01:56:03;2.50;;;1.67;;
19291;SDS011;9779;51.756;7.450;2023-07-29T01:58:29;1.80;;;1.70;;
19291;SDS011;9779;51.756;7.450;2023-07-29T02:00:54;1.73;;;1.63;;
19291;SDS011;9779;51.756;7.450;2023-07-29T02:03:20;2.13;;;1.83;;
19291;SDS011;9779;51.756;7.450;2023-07-29T02:05:45;1.37;;;1.30;;
19291;SDS011;9779;51.756;7.450;2023-07-29T02:08:11;1.90;;;1.80;;
19291;SDS011;9779;51.756;7.450;2023-07-29T02:10:37;2.27;;;2.13;;
19291;SDS011;9779;51.756;7.450;2023-07-29T02:13:05;2.73;;;1.70;;
19291;SDS011;9779;51.756;7.450;2023-07-29T02:15:33;2.43;;;2.23;;
19291;SDS011;9779;51.756;7.450;2023-07-29T02:17:58;2.80;;;2.00;;
19291;SDS011;9779;51.756;7.450;2023-07-29T02:20:24;1.90;;;1.40;;
19291;SDS011;9779;51.756;7.450;2023-07-29T02:22:50;2.10;;;1.93;;
19291;SDS011;9779;51.756;7.450;2023-07-29T02:25:15;2.47;;;2.03;;
19291;SDS011;9779;51.756;7.450;2023-07-29T02:27:41;1.97;;;1.87;;
19291;SDS011;9779;51.756;7.450;2023-07-29T02:30:08;3.03;;;1.87;;
19291;SDS011;9779;51.756;7.450;2023-07-29T02:32:35;1.93;;;1.83;;
19291;SDS011;9779;51.756;7.450;2023-07-29T02:35:00;1.70;;;1.60;;
19291;SDS011;9779;51.756;7.450;2023-07-29T02:37:26;2.07;;;1.97;;
19291;SDS011;9779;51.756;7.450;2023-07-29T02:39:51;2.93;;;1.53;;
19291;SDS011;9779;51.756;7.450;2023-07-29T02:42:17;3.13;;;2.27;;
19291;SDS011;9779;51.756;7.450;2023-07-29T02:44:48;2.40;;;2.20;;
19291;SDS011;9779;51.756;7.450;2023-07-29T02:47:14;1.77;;;1.67;;
19291;SDS011;9779;51.756;7.450;2023-07-29T02:49:40;4.03;;;1.80;;
19291;SDS011;9779;51.756;7.450;2023-07-29T02:52:11;1.90;;;1.80;;
19291;SDS011;9779;51.756;7.450;2023-07-29T02:54:37;2.17;;;2.07;;
19291;SDS011;9779;51.756;7.450;2023-07-29T02:57:02;2.03;;;1.90;;
19291;SDS011;9779;51.756;7.450;2023-07-29T02:59:29;2.33;;;2.23;;
19291;SDS011;9779;51.756;7.450;2023-07-29T03:02:00;2.23;;;2.03;;
19291;SDS011;9779;51.756;7.450;2023-07-29T03:04:26;6.53;;;1.67;;
19291;SDS011;9779;51.756;7.450;2023-07-29T03:06:52;5.27;;;2.10;;
19291;SDS011;9779;51.756;7.450;2023-07-29T03:09:24;2.13;;;2.03;;
19291;SDS011;9779;51.756;7.450;2023-07-29T03:11:49;1.90;;;1.80;;
19291;SDS011;9779;51.756;7.450;2023-07-29T03:14:16;2.57;;;2.23;;
19291;SDS011;9779;51.756;7.450;2023-07-29T03:16:45;2.30;;;2.10;;
19291;SDS011;9779;51.756;7.450;2023-07-29T03:19:11;2.80;;;2.00;;
19291;SDS011;9779;51.756;7.450;2023-07-29T03:21:37;2.23;;;2.00;;
19291;SDS011;9779;51.756;7.450;2023-07-29T03:24:09;4.13;;;2.43;;
19291;SDS011;9779;51.756;7.450;2023-07-29T03:26:34;5.93;;;1.90;;
19291;SDS011;9779;51.756;7.450;2023-07-29T03:29:00;2.70;;;2.40;;
19291;SDS011;9779;51.756;7.450;2023-07-29T03:31:31;2.07;;;1.97;;
19291;SDS011;9779;51.756;7.450;2023-07-29T03:33:57;2.13;;;2.03;;
19291;SDS011;9779;51.756;7.450;2023-07-29T03:36:23;4.53;;;2.10;;
19291;SDS011;9779;51.756;7.450;2023-07-29T03:38:50;3.10;;;2.00;;
19291;SDS011;9779;51.756;7.450;2023-07-29T03:41:16;3.83;;;2.07;;
19291;SDS011;9779;51.756;7.450;2023-07-29T03:43:41;3.63;;;2.37;;
19291;SDS011;9779;51.756;7.450;2023-07-29T03:46:09;3.93;;;2.00;;
19291;SDS011;9779;51.756;7.450;2023-07-29T03:48:38;2.70;;;1.90;;
19291;SDS011;9779;51.756;7.450;2023-07-29T03:51:04;2.97;;;2.10;;
19291;SDS011;9779;51.756;7.450;2023-07-29T03:53:29;6.00;;;2.47;;
19291;SDS011;9779;51.756;7.450;2023-07-29T03:55:58;5.43;;;2.03;;
19291;SDS011;9779;51.756;7.450;2023-07-29T03:58:23;5.57;;;2.10;;
19291;SDS011;9779;51.756;7.450;2023-07-29T04:00:49;4.87;;;1.97;;
19291;SDS011;9779;51.756;7.450;2023-07-29T04:03:18;5.10;;;2.00;;
19291;SDS011;9779;51.756;7.450;2023-07-29T04:05:43;2.20;;;2.10;;
19291;SDS011;9779;51.756;7.450;2023-07-29T04:08:09;4.73;;;2.03;;
19291;SDS011;9779;51.756;7.450;2023-07-29T04:10:35;2.43;;;1.73;;
19291;SDS011;9779;51.756;7.450;2023-07-29T04:13:00;5.20;;;2.10;;
19291;SDS011;9779;51.756;7.450;2023-07-29T04:15:26;1.67;;;1.57;;
19291;SDS011;9779;51.756;7.450;2023-07-29T04:17:55;1.90;;;1.80;;
19291;SDS011;9779;51.756;7.450;2023-07-29T04:20:23;2.80;;;1.50;;
19291;SDS011;9779;51.756;7.450;2023-07-29T04:22:48;2.30;;;1.80;;
19291;SDS011;9779;51.756;7.450;2023-07-29T04:25:14;2.43;;;2.23;;
19291;SDS011;9779;51.756;7.450;2023-07-29T04:27:46;2.30;;;2.10;;
19291;SDS011;9779;51.756;7.450;2023-07-29T04:30:11;2.10;;;2.00;;
19291;SDS011;9779;51.756;7.450;2023-07-29T04:32:37;5.50;;;1.87;;
19291;SDS011;9779;51.756;7.450;2023-07-29T04:35:06;4.20;;;1.90;;
19291;SDS011;9779;51.756;7.450;2023-07-29T04:37:31;1.90;;;1.63;;
19291;SDS011;9779;51.756;7.450;2023-07-29T04:39:57;3.00;;;1.57;;
19291;SDS011;9779;51.756;7.450;2023-07-29T04:42:23;7.50;;;2.20;;
19291;SDS011;9779;51.756;7.450;2023-07-29T04:44:48;4.70;;;1.90;;
19291;SDS011;9779;51.756;7.450;2023-07-29T04:47:14;3.90;;;1.83;;
19291;SDS011;9779;51.756;7.450;2023-07-29T04:49:48;4.53;;;2.20;;
19291;SDS011;9779;51.756;7.450;2023-07-29T04:52:14;3.37;;;2.10;;
19291;SDS011;9779;51.756;7.450;2023-07-29T04:54:46;5.20;;;2.20;;
19291;SDS011;9779;51.756;7.450;2023-07-29T04:57:12;6.63;;;2.27;;
19291;SDS011;9779;51.756;7.450;2023-07-29T04:59:37;3.30;;;2.03;;
19291;SDS011;9779;51.756;7.450;2023-07-29T05:02:06;3.80;;;2.00;;
19291;SDS011;9779;51.756;7.450;2023-07-29T05:04:32;2.00;;;1.90;;
19291;SDS011;9779;51.756;7.450;2023-07-29T05:06:57;2.23;;;2.13;;
19291;SDS011;9779;51.756;7.450;2023-07-29T05:09:23;7.33;;;2.10;;
19291;SDS011;9779;51.756;7.450;2023-07-29T05:11:49;3.60;;;2.80;;
19291;SDS011;9779;51.756;7.450;2023-07-29T05:14:15;6.70;;;2.40;;
19291;SDS011;9779;51.756;7.450;2023-07-29T05:16:44;4.13;;;2.60;;
19291;SDS011;9779;51.756;7.450;2023-07-29T05:19:10;8.30;;;3.37;;
19291;SDS011;9779;51.756;7.450;2023-07-29T05:21:37;11.07;;;3.10;;
19291;SDS011;9779;51.756;7.450;2023-07-29T05:24:06;4.17;;;3.07;;
19291;SDS011;9779;51.756;7.450;2023-07-29T05:26:32;7.77;;;2.93;;
19291;SDS011;9779;51.756;7.450;2023-07-29T05:28:58;3.13;;;2.93;;
19291;SDS011;9779;51.756;7.450;2023-07-29T05:31:23;3.90;;;3.43;;
19291;SDS011;9779;51.756;7.450;2023-07-29T05:33:49;3.90;;;3.33;;
19291;SDS011;9779;51.756;7.450;2023-07-29T05:36:15;3.97;;;3.77;;
19291;SDS011;9779;51.756;7.450;2023-07-29T05:38:46;3.80;;;3.60;;
19291;SDS011;9779;51.756;7.450;2023-07-29T05:41:12;4.30;;;4.00;;
19291;SDS011;9779;51.756;7.450;2023-07-29T05:43:37;5.30;;;5.03;;
19291;SDS011;9779;51.756;7.450;2023-07-29T05:46:03;5.40;;;5.10;;
19291;SDS011;9779;51.756;7.450;2023-07-29T05:48:31;6.27;;;5.73;;
19291;SDS011;9779;51.756;7.450;2023-07-29T05:50:57;6.47;;;6.07;;
19291;SDS011;9779;51.756;7.450;2023-07-29T05:53:23;5.63;;;5.23;;
19291;SDS011;9779;51.756;7.450;2023-07-29T05:55:49;5.37;;;5.07;;
19291;SDS011;9779;51.756;7.450;2023-07-29T05:58:14;5.27;;;4.77;;
19291;SDS011;9779;51.756;7.450;2023-07-29T06:00:40;8.27;;;5.47;;
19291;SDS011;9779;51.756;7.450;2023-07-29T06:03:08;4.20;;;3.80;;
19291;SDS011;9779;51.756;7.450;2023-07-29T06:05:36;4.87;;;4.17;;
19291;SDS011;9779;51.756;7.450;2023-07-29T06:08:02;4.20;;;3.90;;
19291;SDS011;9779;51.756;7.450;2023-07-29T06:10:34;5.80;;;4.33;;
19291;SDS011;9779;51.756;7.450;2023-07-29T06:12:59;3.93;;;3.57;;
19291;SDS011;9779;51.756;7.450;2023-07-29T06:15:25;4.60;;;3.43;;
19291;SDS011;9779;51.756;7.450;2023-07-29T06:17:50;4.10;;;3.90;;
19291;SDS011;9779;51.756;7.450;2023-07-29T06:20:19;3.70;;;3.50;;
19291;SDS011;9779;51.756;7.450;2023-07-29T06:22:45;4.70;;;4.17;;
19291;SDS011;9779;51.756;7.450;2023-07-29T06:25:11;4.37;;;4.17;;
19291;SDS011;9779;51.756;7.450;2023-07-29T06:27:36;4.53;;;4.13;;
19291;SDS011;9779;51.756;7.450;2023-07-29T06:30:02;4.80;;;4.47;;
19291;SDS011;9779;51.756;7.450;2023-07-29T06:32:27;4.57;;;4.27;;
19291;SDS011;9779;51.756;7.450;2023-07-29T06:34:53;4.70;;;4.17;;
19291;SDS011;9779;51.756;7.450;2023-07-29T06:37:19;5.10;;;4.70;;
19291;SDS011;9779;51.756;7.450;2023-07-29T06:39:54;14.93;;;4.97;;
19291;SDS011;9779;51.756;7.450;2023-07-29T06:42:19;4.60;;;4.13;;
19291;SDS011;9779;51.756;7.450;2023-07-29T06:44:51;3.80;;;3.60;;
19291;SDS011;9779;51.756;7.450;2023-07-29T06:47:16;4.17;;;3.90;;
19291;SDS011;9779;51.756;7.450;2023-07-29T06:49:42;4.30;;;4.10;;
19291;SDS011;9779;51.756;7.450;2023-07-29T06:52:08;4.47;;;4.17;;
19291;SDS011;9779;51.756;7.450;2023-07-29T06:54:36;4.93;;;3.90;;
19291;SDS011;9779;51.756;7.450;2023-07-29T06:57:02;4.13;;;3.80;;
19291;SDS011;9779;51.756;7.450;2023-07-29T06:59:27;4.97;;;3.53;;
19291;SDS011;9779;51.756;7.450;2023-07-29T07:01:53;3.60;;;3.40;;
19291;SDS011;9779;51.756;7.450;2023-07-29T07:04:19;9.33;;;3.07;;
19291;SDS011;9779;51.756;7.450;2023-07-29T07:06:44;2.67;;;2.50;;
19291;SDS011;9779;51.756;7.450;2023-07-29T07:09:16;2.43;;;2.33;;
19291;SDS011;9779;51.756;7.450;2023-07-29T07:11:41;4.03;;;2.77;;
19291;SDS011;9779;51.756;7.450;2023-07-29T07:14:07;2.30;;;1.50;;
19291;SDS011;9779;51.756;7.450;2023-07-29T07:16:39;1.90;;;1.80;;
19291;SDS011;9779;51.756;7.450;2023-07-29T07:19:04;1.80;;;1.70;;
19291;SDS011;9779;51.756;7.450;2023-07-29T07:21:30;1.33;;;1.13;;
19291;SDS011;9779;51.756;7.450;2023-07-29T07:24:03;1.93;;;1.77;;
19291;SDS011;9779;51.756;7.450;2023-07-29T07:26:29;1.37;;;1.27;;
19291;SDS011;9779;51.756;7.450;2023-07-29T07:28:55;1.43;;;1.33;;
19291;SDS011;9779;51.756;7.450;2023-07-29T07:31:20;1.77;;;1.30;;
19291;SDS011;9779;51.756;7.450;2023-07-29T07:33:53;1.43;;;1.30;;
19291;SDS011;9779;51.756;7.450;2023-07-29T07:36:18;1.53;;;1.43;;
19291;SDS011;9779;51.756;7.450;2023-07-29T07:38:44;1.73;;;1.60;;
19291;SDS011;9779;51.756;7.450;2023-07-29T07:41:12;1.40;;;1.30;;
19291;SDS011;9779;51.756;7.450;2023-07-29T07:43:38;2.10;;;1.30;;
19291;SDS011;9779;51.756;7.450;2023-07-29T07:46:04;1.40;;;1.10;;
19291;SDS011;9779;51.756;7.450;2023-07-29T07:48:30;1.40;;;1.17;;
19291;SDS011;9779;51.756;7.450;2023-07-29T07:51:04;2.63;;;1.03;;
19291;SDS011;9779;51.756;7.450;2023-07-29T07:53:38;1.13;;;1.00;;
19291;SDS011;9779;51.756;7.450;2023-07-29T07:56:05;3.43;;;1.20;;
19291;SDS011;9779;51.756;7.450;2023-07-29T07:58:31;1.33;;;1.23;;
19291;SDS011;9779;51.756;7.450;2023-07-29T08:01:03;1.20;;;1.10;;
19291;SDS011;9779;51.756;7.450;2023-07-29T08:03:33;6.73;;;0.93;;
19291;SDS011;9779;51.756;7.450;2023-07-29T08:06:02;1.93;;;1.20;;
19291;SDS011;9779;51.756;7.450;2023-07-29T08:08:29;1.17;;;1.00;;
19291;SDS011;9779;51.756;7.450;2023-07-29T08:10:56;1.00;;;0.90;;
19291;SDS011;9779;51.756;7.450;2023-07-29T08:13:25;0.80;;;0.80;;
19291;SDS011;9779;51.756;7.450;2023-07-29T08:15:51;0.63;;;0.60;;
19291;SDS011;9779;51.756;7.450;2023-07-29T08:18:18;0.63;;;0.63;;
19291;SDS011;9779;51.756;7.450;2023-07-29T08:20:51;0.70;;;0.70;;
19291;SDS011;9779;51.756;7.450;2023-07-29T08:23:25;0.80;;;0.80;;
19291;SDS011;9779;51.756;7.450;2023-07-29T08:25:55;0.70;;;0.70;;
19291;SDS011;9779;51.756;7.450;2023-07-29T08:28:32;0.90;;;0.67;;
19291;SDS011;9779;51.756;7.450;2023-07-29T08:31:05;0.70;;;0.60;;
19291;SDS011;9779;51.756;7.450;2023-07-29T08:33:31;1.03;;;0.63;;
19291;SDS011;9779;51.756;7.450;2023-07-29T08:36:01;4.10;;;1.00;;
19291;SDS011;9779;51.756;7.450;2023-07-29T08:38:28;0.70;;;0.67;;
19291;SDS011;9779;51.756;7.450;2023-07-29T08:40:56;0.80;;;0.80;;
19291;SDS011;9779;51.756;7.450;2023-07-29T08:43:28;1.00;;;0.70;;
19291;SDS011;9779;51.756;7.450;2023-07-29T08:46:03;0.70;;;0.70;;
19291;SDS011;9779;51.756;7.450;2023-07-29T08:48:33;1.30;;;0.67;;
19291;SDS011;9779;51.756;7.450;2023-07-29T08:51:06;2.67;;;0.70;;
19291;SDS011;9779;51.756;7.450;2023-07-29T08:53:37;0.50;;;0.50;;
19291;SDS011;9779;51.756;7.450;2023-07-29T08:56:04;0.97;;;0.60;;
19291;SDS011;9779;51.756;7.450;2023-07-29T08:58:30;0.93;;;0.63;;
19291;SDS011;9779;51.756;7.450;2023-07-29T09:00:56;0.70;;;0.70;;
19291;SDS011;9779;51.756;7.450;2023-07-29T09:03:28;1.40;;;0.90;;
19291;SDS011;9779;51.756;7.450;2023-07-29T09:05:54;0.83;;;0.83;;
19291;SDS011;9779;51.756;7.450;2023-07-29T09:08:28;0.93;;;0.70;;
19291;SDS011;9779;51.756;7.450;2023-07-29T09:10:54;0.50;;;0.50;;
19291;SDS011;9779;51.756;7.450;2023-07-29T09:13:20;0.70;;;0.70;;
19291;SDS011;9779;51.756;7.450;2023-07-29T09:15:55;1.43;;;0.80;;
19291;SDS011;9779;51.756;7.450;2023-07-29T09:18:28;0.67;;;0.50;;
19291;SDS011;9779;51.756;7.450;2023-07-29T09:20:55;4.83;;;0.53;;
19291;SDS011;9779;51.756;7.450;2023-07-29T09:23:26;0.80;;;0.70;;
19291;SDS011;9779;51.756;7.450;2023-07-29T09:26:00;2.23;;;0.77;;
19291;SDS011;9779;51.756;7.450;2023-07-29T09:28:31;2.30;;;0.70;;
19291;SDS011;9779;51.756;7.450;2023-07-29T09:31:03;0.70;;;0.70;;
19291;SDS011;9779;51.756;7.450;2023-07-29T09:33:38;1.17;;;0.73;;
19291;SDS011;9779;51.756;7.450;2023-07-29T09:36:09;0.97;;;0.90;;
19291;SDS011;9779;51.756;7.450;2023-07-29T09:38:35;1.37;;;0.83;;
19291;SDS011;9779;51.756;7.450;2023-07-29T09:41:01;0.97;;;0.93;;
19291;SDS011;9779;51.756;7.450;2023-07-29T09:43:33;1.20;;;0.90;;
19291;SDS011;9779;51.756;7.450;2023-07-29T09:46:00;3.23;;;1.00;;
19291;SDS011;9779;51.756;7.450;2023-07-29T09:48:26;1.30;;;1.20;;
19291;SDS011;9779;51.756;7.450;2023-07-29T09:50:56;1.27;;;1.10;;
19291;SDS011;9779;51.756;7.450;2023-07-29T09:53:22;0.80;;;0.80;;
19291;SDS011;9779;51.756;7.450;2023-07-29T09:55:49;0.80;;;0.80;;
19291;SDS011;9779;51.756;7.450;2023-07-29T09:58:18;1.17;;;1.07;;
19291;SDS011;9779;51.756;7.450;2023-07-29T10:00:51;0.97;;;0.80;;
19291;SDS011;9779;51.756;7.450;2023-07-29T10:03:18;1.20;;;1.00;;
19291;SDS011;9779;51.756;7.450;2023-07-29T10:05:46;2.50;;;1.90;;
19291;SDS011;9779;51.756;7.450;2023-07-29T10:08:12;2.83;;;0.60;;
19291;SDS011;9779;51.756;7.450;2023-07-29T10:10:45;0.70;;;0.70;;
19291;SDS011;9779;51.756;7.450;2023-07-29T10:13:10;0.60;;;0.60;;
19291;SDS011;9779;51.756;7.450;2023-07-29T10:15:44;0.63;;;0.60;;
19291;SDS011;9779;51.756;7.450;2023-07-29T10:18:11;1.40;;;0.80;;
19291;SDS011;9779;51.756;7.450;2023-07-29T10:20:43;1.07;;;0.60;;
19291;SDS011;9779;51.756;7.450;2023-07-29T10:23:09;0.83;;;0.50;;
19291;SDS011;9779;51.756;7.450;2023-07-29T10:25:43;0.50;;;0.50;;
19291;SDS011;9779;51.756;7.450;2023-07-29T10:28:20;7.33;;;0.67;;
19291;SDS011;9779;51.756;7.450;2023-07-29T10:30:53;2.40;;;0.50;;
19291;SDS011;9779;51.756;7.450;2023-07-29T10:33:21;3.40;;;0.60;;
19291;SDS011;9779;51.756;7.450;2023-07-29T10:35:46;0.40;;;0.40;;
19291;SDS011;9779;51.756;7.450;2023-07-29T10:38:12;0.50;;;0.43;;
19291;SDS011;9779;51.756;7.450;2023-07-29T10:43:26;0.60;;;0.60;;
19291;SDS011;9779;51.756;7.450;2023-07-29T10:46:14;0.53;;;0.40;;
19291;SDS011;9779;51.756;7.450;2023-07-29T10:48:57;0.87;;;0.60;;
19291;SDS011;9779;51.756;7.450;2023-07-29T10:51:36;0.70;;;0.60;;
19291;SDS011;9779;51.756;7.450;2023-07-29T10:54:03;0.50;;;0.50;;
19291;SDS011;9779;51.756;7.450;2023-07-29T10:56:36;8.23;;;0.65;;
19291;SDS011;9779;51.756;7.450;2023-07-29T11:01:58;3.30;;;0.43;;
19291;SDS011;9779;51.756;7.450;2023-07-29T11:04:25;0.50;;;0.50;;
19291;SDS011;9779;51.756;7.450;2023-07-29T11:12:36;0.43;;;0.40;;
19291;SDS011;9779;51.756;7.450;2023-07-29T11:15:03;0.60;;;0.60;;
19291;SDS011;9779;51.756;7.450;2023-07-29T11:17:58;0.77;;;0.50;;
19291;SDS011;9779;51.756;7.450;2023-07-29T11:20:25;2.03;;;0.47;;
19291;SDS011;9779;51.756;7.450;2023-07-29T11:23:01;0.50;;;0.50;;
19291;SDS011;9779;51.756;7.450;2023-07-29T11:25:28;0.85;;;0.45;;
19291;SDS011;9779;51.756;7.450;2023-07-29T11:27:55;1.60;;;0.50;;
19291;SDS011;9779;51.756;7.450;2023-07-29T11:30:22;0.32;;;0.32;;
19291;SDS011;9779;51.756;7.450;2023-07-29T11:32:51;1.20;;;0.52;;
19291;SDS011;9779;51.756;7.450;2023-07-29T11:35:19;0.40;;;0.40;;
19291;SDS011;9779;51.756;7.450;2023-07-29T11:37:50;0.60;;;0.60;;
19291;SDS011;9779;51.756;7.450;2023-07-29T11:40:23;2.78;;;0.50;;
19291;SDS011;9779;51.756;7.450;2023-07-29T11:42:50;0.90;;;0.70;;
19291;SDS011;9779;51.756;7.450;2023-07-29T11:45:16;1.15;;;0.75;;
19291;SDS011;9779;51.756;7.450;2023-07-29T11:47:43;1.27;;;0.60;;
19291;SDS011;9779;51.756;7.450;2023-07-29T11:50:10;0.93;;;0.60;;
19291;SDS011;9779;51.756;7.450;2023-07-29T11:52:42;0.60;;;0.57;;
19291;SDS011;9779;51.756;7.450;2023-07-29T11:55:12;0.52;;;0.50;;
19291;SDS011;9779;51.756;7.450;2023-07-29T11:57:39;0.57;;;0.40;;
19291;SDS011;9779;51.756;7.450;2023-07-29T12:00:12;0.70;;;0.57;;
19291;SDS011;9779;51.756;7.450;2023-07-29T12:02:40;0.50;;;0.50;;
19291;SDS011;9779;51.756;7.450;2023-07-29T12:05:13;3.55;;;0.60;;
19291;SDS011;9779;51.756;7.450;2023-07-29T12:07:40;0.65;;;0.50;;
19291;SDS011;9779;51.756;7.450;2023-07-29T12:10:13;0.45;;;0.45;;
19291;SDS011;9779;51.756;7.450;2023-07-29T12:12:48;0.50;;;0.50;;
19291;SDS011;9779;51.756;7.450;2023-07-29T12:15:27;0.70;;;0.70;;
19291;SDS011;9779;51.756;7.450;2023-07-29T12:17:57;0.75;;;0.63;;
19291;SDS011;9779;51.756;7.450;2023-07-29T12:20:23;1.20;;;0.63;;
19291;SDS011;9779;51.756;7.450;2023-07-29T12:23:09;0.80;;;0.60;;
19291;SDS011;9779;51.756;7.450;2023-07-29T12:25:34;1.13;;;0.70;;
19291;SDS011;9779;51.756;7.450;2023-07-29T12:28:04;0.50;;;0.50;;
19291;SDS011;9779;51.756;7.450;2023-07-29T12:30:42;1.50;;;0.80;;
19291;SDS011;9779;51.756;7.450;2023-07-29T12:33:08;0.93;;;0.60;;
19291;SDS011;9779;51.756;7.450;2023-07-29T12:35:35;1.30;;;0.80;;
19291;SDS011;9779;51.756;7.450;2023-07-29T12:38:05;5.38;;;0.90;;
19291;SDS011;9779;51.756;7.450;2023-07-29T12:40:37;0.85;;;0.85;;
19291;SDS011;9779;51.756;7.450;2023-07-29T12:43:03;0.75;;;0.73;;
19291;SDS011;9779;51.756;7.450;2023-07-29T12:45:35;0.85;;;0.70;;
19291;SDS011;9779;51.756;7.450;2023-07-29T12:48:01;0.80;;;0.70;;
19291;SDS011;9779;51.756;7.450;2023-07-29T12:50:26;1.15;;;0.90;;
19291;SDS011;9779;51.756;7.450;2023-07-29T12:52:52;3.83;;;0.90;;
19291;SDS011;9779;51.756;7.450;2023-07-29T12:55:17;0.98;;;0.70;;
19291;SDS011;9779;51.756;7.450;2023-07-29T12:57:46;0.98;;;0.80;;
19291;SDS011;9779;51.756;7.450;2023-07-29T13:00:11;0.85;;;0.85;;
19291;SDS011;9779;51.756;7.450;2023-07-29T13:02:38;0.77;;;0.70;;
19291;SDS011;9779;51.756;7.450;2023-07-29T13:05:03;0.90;;;0.88;;
19291;SDS011;9779;51.756;7.450;2023-07-29T13:07:29;1.98;;;0.93;;
19291;SDS011;9779;51.756;7.450;2023-07-29T13:10:01;3.58;;;0.80;;
19291;SDS011;9779;51.756;7.450;2023-07-29T13:12:28;0.63;;;0.63;;
19291;SDS011;9779;51.756;7.450;2023-07-29T13:14:54;1.75;;;1.00;;
19291;SDS011;9779;51.756;7.450;2023-07-29T13:17:22;0.70;;;0.70;;
19291;SDS011;9779;51.756;7.450;2023-07-29T13:19:48;3.40;;;0.93;;
19291;SDS011;9779;51.756;7.450;2023-07-29T13:22:14;8.23;;;1.02;;
19291;SDS011;9779;51.756;7.450;2023-07-29T13:24:45;0.85;;;0.85;;
19291;SDS011;9779;51.756;7.450;2023-07-29T13:27:11;0.77;;;0.77;;
19291;SDS011;9779;51.756;7.450;2023-07-29T13:29:37;1.30;;;0.90;;
19291;SDS011;9779;51.756;7.450;2023-07-29T13:32:04;1.27;;;0.52;;
19291;SDS011;9779;51.756;7.450;2023-07-29T13:34:30;1.48;;;0.80;;
19291;SDS011;9779;51.756;7.450;2023-07-29T13:36:56;1.10;;;0.80;;
19291;SDS011;9779;51.756;7.450;2023-07-29T13:39:22;0.90;;;0.90;;
19291;SDS011;9779;51.756;7.450;2023-07-29T13:41:47;2.70;;;0.90;;
19291;SDS011;9779;51.756;7.450;2023-07-29T13:44:13;1.70;;;1.00;;
19291;SDS011;9779;51.756;7.450;2023-07-29T13:46:39;0.82;;;0.80;;
19291;SDS011;9779;51.756;7.450;2023-07-29T13:49:04;1.10;;;1.00;;
19291;SDS011;9779;51.756;7.450;2023-07-29T13:51:30;1.13;;;1.02;;
19291;SDS011;9779;51.756;7.450;2023-07-29T13:54:01;1.20;;;1.10;;
19291;SDS011;9779;51.756;7.450;2023-07-29T13:56:27;0.88;;;0.88;;
19291;SDS011;9779;51.756;7.450;2023-07-29T13:58:53;1.30;;;1.10;;
19291;SDS011;9779;51.756;7.450;2023-07-29T14:01:18;1.00;;;0.90;;
19291;SDS011;9779;51.756;7.450;2023-07-29T14:03:47;3.85;;;1.20;;
19291;SDS011;9779;51.756;7.450;2023-07-29T14:06:12;1.25;;;1.15;;
19291;SDS011;9779;51.756;7.450;2023-07-29T14:08:38;1.10;;;1.10;;
19291;SDS011;9779;51.756;7.450;2023-07-29T14:11:05;8.75;;;1.10;;
19291;SDS011;9779;51.756;7.450;2023-07-29T14:13:34;1.35;;;1.25;;
19291;SDS011;9779;51.756;7.450;2023-07-29T14:16:03;1.20;;;1.10;;
19291;SDS011;9779;51.756;7.450;2023-07-29T14:18:30;1.50;;;1.10;;
19291;SDS011;9779;51.756;7.450;2023-07-29T14:20:58;4.00;;;0.80;;
19291;SDS011;9779;51.756;7.450;2023-07-29T14:23:24;1.27;;;0.50;;
19291;SDS011;9779;51.756;7.450;2023-07-29T14:25:52;3.17;;;0.70;;
19291;SDS011;9779;51.756;7.450;2023-07-29T14:28:17;0.50;;;0.30;;
19291;SDS011;9779;51.756;7.450;2023-07-29T14:30:43;0.70;;;0.50;;
19291;SDS011;9779;51.756;7.450;2023-07-29T14:33:10;0.50;;;0.50;;
19291;SDS011;9779;51.756;7.450;2023-07-29T14:35:36;2.47;;;0.53;;
19291;SDS011;9779;51.756;7.450;2023-07-29T14:38:01;0.93;;;0.70;;
19291;SDS011;9779;51.756;7.450;2023-07-29T14:40:27;2.63;;;0.90;;
19291;SDS011;9779;51.756;7.450;2023-07-29T14:42:52;1.27;;;0.60;;
19291;SDS011;9779;51.756;7.450;2023-07-29T14:45:18;1.43;;;0.50;;
19291;SDS011;9779;51.756;7.450;2023-07-29T14:47:47;1.00;;;0.50;;
19291;SDS011;9779;51.756;7.450;2023-07-29T14:50:13;0.80;;;0.50;;
19291;SDS011;9779;51.756;7.450;2023-07-29T14:52:38;0.47;;;0.40;;
19291;SDS011;9779;51.756;7.450;2023-07-29T14:55:04;0.50;;;0.30;;
19291;SDS011;9779;51.756;7.450;2023-07-29T14:57:30;1.00;;;0.70;;
19291;SDS011;9779;51.756;7.450;2023-07-29T14:59:59;2.93;;;0.70;;
19291;SDS011;9779;51.756;7.450;2023-07-29T15:02:28;1.20;;;0.80;;
19291;SDS011;9779;51.756;7.450;2023-07-29T15:04:53;3.13;;;0.70;;
19291;SDS011;9779;51.756;7.450;2023-07-29T15:07:19;1.43;;;0.73;;
19291;SDS011;9779;51.756;7.450;2023-07-29T15:09:47;4.33;;;0.60;;
19291;SDS011;9779;51.756;7.450;2023-07-29T15:12:12;1.70;;;0.93;;
19291;SDS011;9779;51.756;7.450;2023-07-29T15:14:38;1.23;;;0.70;;
19291;SDS011;9779;51.756;7.450;2023-07-29T15:17:04;1.53;;;0.50;;
19291;SDS011;9779;51.756;7.450;2023-07-29T15:19:31;1.03;;;0.70;;
19291;SDS011;9779;51.756;7.450;2023-07-29T15:21:56;2.40;;;0.90;;
19291;SDS011;9779;51.756;7.450;2023-07-29T15:24:25;5.57;;;0.80;;